METAR Analyzer

一覧表示

Hello, Guest. (Login)

ROAH/OKA  -  那覇

観測日時
2020-10-25 12:30 (UTC) (23分前)
気温
23
露点
14
湿数
9
相対湿度
56.9%
QNH
1017.3hPa
推定現地気圧
1016.9hPa
推定海面気圧
1017.3hPa
体感温度
15.8
(無風時)
22.1
HI
22.8
気温前日比
+1
体感温度前日比
+1
HI前日比
+1.1
水平視程
>10000m
鉛直視程
データなし
雲底高度
23000ft AGL
V/I
VMC (VFR)
RVR
No RVR data
卓越風
9kt from 30°
ガスト
No gust
降水
報告なし
その他の天気
報告なし
少しの(1/8) 層積雲 @ 4000ft AGL / 散在する(3/8) 高積雲 @ 21000ft AGL / 隙間のある(5/8) 高積雲 @ 23000ft AGL

ROAH 251230Z 03009KT 9999 FEW040 SCT210 BKN230 23/14 Q1017 RMK 1SC040 3AC210 5AC230 A3004

RODN  -  嘉手納基地

観測日時
2020-10-25 11:56 (UTC) (57分前)
気温
19
露点
15.1
湿数
3.9
相対湿度
78.1%
QNH
1017.3hPa
推定現地気圧
1012.0hPa
推定海面気圧
1017.2hPa
体感温度
12.4
(無風時)
20
HI
19
気温前日比
+0.9
体感温度前日比
+1.6
HI前日比
+1.2
水平視程
>10SM
鉛直視程
データなし
雲底高度
No dense clouds
V/I
VMC (VFR)
RVR
No RVR data
卓越風
6kt from 50°
ガスト
No gust
降水
報告なし
その他の天気
報告なし
散在する雲 @ 22000ft AGL

RODN 251156Z AUTO 05006KT 10SM SCT220 19/15 A3004 RMK AO2 SLP179 T01900151 10255 20179 51007 $

ROTM  -  普天間飛行場

観測日時
2020-10-25 11:56 (UTC) (57分前)
気温
20.6
露点
12.2
湿数
8.4
相対湿度
58.6%
QNH
1017.9hPa
推定現地気圧
1008.9hPa
推定海面気圧
1017.7hPa
体感温度
14.4
(無風時)
20.5
HI
20.2
気温前日比
+0.6
体感温度前日比
+1.6
HI前日比
+0.7
水平視程
>10000m
鉛直視程
データなし
雲底高度
No dense clouds
V/I
VMC (VFR)
RVR
No RVR data
卓越風
5kt from 40°
ガスト
No gust
降水
報告なし
その他の天気
報告なし
散在する雲 @ 4500ft AGL

ROTM 251156Z 04005KT 9999 SCT045 21/12 A3006 RMK SLP167 T02060122 10250 20206 53002

株式会社マネーパートナーズ 【Manepa Card】

RORK/KTD  -  北大東

観測日時
2020-10-25 12:00 (UTC) (53分前)
気温
24
露点
16
湿数
8
相対湿度
60.9%
QNH
1016.6hPa
推定現地気圧
1014.0hPa
推定海面気圧
1016.6hPa
体感温度
16.4
(無風時)
23.1
HI
24
気温前日比
+1
体感温度前日比
+0.9
HI前日比
+1.1
水平視程
>10000m
鉛直視程
データなし
雲底高度
データなし
V/I
判定不可
RVR
No RVR data
卓越風
13kt from 50°
ガスト
No gust
降水
報告なし
その他の天気
NSC
報告なし

RORK 251200Z AUTO 05013KT 9999 NSC 24/16 Q1016 RMK A3002

ROMD/MMD  -  南大東

観測日時
2020-10-25 12:00 (UTC) (53分前)
気温
24
露点
16
湿数
8
相対湿度
60.9%
QNH
1016.6hPa
推定現地気圧
1010.8hPa
推定海面気圧
1016.4hPa
体感温度
16.9
(無風時)
23.1
HI
24
気温前日比
+1
体感温度前日比
+1.2
HI前日比
+1.1
水平視程
>10000m
鉛直視程
データなし
雲底高度
5000ft AGL
V/I
VMC (VFR)
RVR
No RVR data
卓越風
10kt from 50°
ガスト
No gust
降水
報告なし
その他の天気
報告なし
少しの雲 @ 3600ft AGL / 散在する雲 @ 4000ft AGL / 隙間のある雲 @ 5000ft AGL

ROMD 251200Z AUTO 05010KT 9999 FEW036 SCT040 BKN050 24/16 Q1016 RMK A3002

ROMY/MMY  -  宮古

観測日時
2020-10-25 11:00 (UTC) (113分前)
気温
23
露点
17
湿数
6
相対湿度
69%
QNH
1016hPa
推定現地気圧
1010.8hPa
推定海面気圧
1015.8hPa
体感温度
16.4
(無風時)
22.8
HI
23.2
気温前日比
+1
体感温度前日比
+2.4
HI前日比
+1.1
水平視程
>10000m
鉛直視程
データなし
雲底高度
No dense clouds
V/I
VMC (VFR)
RVR
No RVR data
卓越風
8kt from 60°
ガスト
No gust
降水
報告なし
その他の天気
報告なし
少しの雲 @ 4000ft AGL

ROMY 251100Z 06008KT 9999 FEW040 23/17 Q1016

ROIG/ISG  -  石垣

観測日時
2020-10-25 11:00 (UTC) (113分前)
気温
24
露点
19
湿数
5
相対湿度
73.6%
QNH
1015hPa
推定現地気圧
1011.3hPa
推定海面気圧
1014.9hPa
体感温度
16.8
(無風時)
23.8
HI
24.4
気温前日比
+1
体感温度前日比
+2
HI前日比
+1.1
水平視程
>10000m
鉛直視程
データなし
雲底高度
3200ft AGL
V/I
VMC (VFR)
RVR
No RVR data
卓越風
13kt from 50°
ガスト
No gust
降水
報告なし
その他の天気
報告なし
隙間のある雲 @ 3200ft AGL

ROIG 251100Z 05013KT 9999 BKN032 24/19 Q1015

ROYN/OGN  -  与那国

観測日時
2020-10-25 12:00 (UTC) (53分前)
気温
24
露点
17
湿数
7
相対湿度
64.9%
QNH
1016hPa
推定現地気圧
1014.2hPa
推定海面気圧
1015.9hPa
体感温度
16.9
(無風時)
23.3
HI
24.2
気温前日比
+1
体感温度前日比
+2.1
HI前日比
+1
水平視程
>10000m
鉛直視程
データなし
雲底高度
No dense clouds
V/I
VMC (VFR)
RVR
No RVR data
卓越風
11kt from 70°
ガスト
No gust
降水
報告なし
その他の天気
報告なし
目立った雲なし

ROYN 251200Z AUTO 07011KT 9999 NCD 24/17 Q1016

7msec